createdAt,value
2018-06-21T00:01:16.956Z,51.23
2018-06-21T00:03:48.632Z,46.50
2018-06-21T00:06:19.792Z,46.54
2018-06-21T00:08:50.787Z,45.80
2018-06-21T00:11:22.506Z,44.39
2018-06-21T00:13:53.494Z,43.03
2018-06-21T00:16:24.675Z,42.59
2018-06-21T00:53:21.314Z,38.33
2018-06-21T00:56:02.645Z,41.04
2018-06-21T00:58:34.653Z,39.39
2018-06-21T01:01:05.772Z,39.81
2018-06-21T01:03:37.224Z,38.87
2018-06-21T01:06:08.309Z,38.52
2018-06-21T01:08:39.698Z,38.36
2018-06-21T01:11:10.939Z,37.25
2018-06-21T01:13:43.488Z,38.15
2018-06-21T01:16:14.649Z,37.64
2018-06-21T01:18:45.702Z,37.49
2018-06-21T01:21:17.777Z,38.11
2018-06-21T01:23:48.993Z,38.83
2018-06-21T01:26:20.419Z,38.57
2018-06-21T01:28:51.859Z,37.88
2018-06-21T01:31:22.699Z,38.86
2018-06-21T01:33:53.954Z,40.50
2018-06-21T01:36:25.060Z,38.98
2018-06-21T01:38:56.250Z,38.59
2018-06-21T01:41:27.252Z,38.81
2018-06-21T01:43:58.400Z,38.99
2018-06-21T01:46:29.528Z,39.76
2018-06-21T01:49:00.749Z,38.79
2018-06-21T01:51:31.816Z,37.88
2018-06-21T01:54:03.080Z,36.78
2018-06-21T01:56:34.154Z,36.87
2018-06-21T01:59:06.417Z,37.09
2018-06-21T02:01:37.542Z,38.11
2018-06-21T02:04:08.913Z,37.09
2018-06-21T02:06:40.102Z,37.46
2018-06-21T02:09:11.319Z,38.18
2018-06-21T02:11:42.218Z,37.63
2018-06-21T02:14:13.367Z,37.71
2018-06-21T02:16:44.595Z,37.22
2018-06-21T02:19:15.728Z,37.98
2018-06-21T02:21:46.738Z,37.86
2018-06-21T02:24:17.938Z,38.16
2018-06-21T02:26:48.884Z,37.84
2018-06-21T02:29:20.024Z,38.63
2018-06-21T02:31:51.166Z,38.68
2018-06-21T02:34:22.040Z,38.98
2018-06-21T02:36:53.361Z,39.39
2018-06-21T02:39:24.493Z,39.69
2018-06-21T02:41:55.556Z,39.34
2018-06-21T02:44:27.181Z,40.02
2018-06-21T02:46:58.473Z,39.50
2018-06-21T02:49:29.760Z,39.65
2018-06-21T02:52:01.159Z,39.60
2018-06-21T02:54:32.458Z,40.19
2018-06-21T02:57:03.550Z,40.37
2018-06-21T02:59:34.537Z,40.38
2018-06-21T03:02:05.613Z,39.48
2018-06-21T03:04:37.308Z,40.06
2018-06-21T03:07:08.658Z,38.88
2018-06-21T03:09:39.952Z,38.19
2018-06-21T03:12:15.781Z,36.78
2018-06-21T03:14:46.909Z,35.71
2018-06-21T03:17:18.044Z,34.47
2018-06-21T03:19:49.840Z,33.24
2018-06-21T03:22:20.768Z,32.76
2018-06-21T03:24:52.043Z,32.74
2018-06-21T03:27:23.231Z,32.96
2018-06-21T03:29:54.517Z,31.67
2018-06-21T03:32:25.874Z,30.79
2018-06-21T03:34:57.067Z,30.77
2018-06-21T03:37:28.037Z,28.84
2018-06-21T03:40:00.651Z,29.78
2018-06-21T03:42:32.165Z,29.24
2018-06-21T03:45:03.217Z,29.16
2018-06-21T03:47:34.348Z,29.56
2018-06-21T03:50:05.639Z,28.76
2018-06-21T03:52:36.853Z,28.45
2018-06-21T03:55:08.011Z,27.48
2018-06-21T03:57:38.881Z,27.86
2018-06-21T04:00:10.023Z,28.42
2018-06-21T04:02:41.126Z,27.49
2018-06-21T04:05:12.046Z,26.76
2018-06-21T04:07:43.307Z,26.09
2018-06-21T04:10:14.591Z,26.24
2018-06-21T04:12:45.857Z,26.82
2018-06-21T04:15:17.092Z,25.92
2018-06-21T04:17:48.066Z,25.87
2018-06-21T04:20:19.765Z,27.41
2018-06-21T04:22:50.875Z,25.86
2018-06-21T04:25:22.193Z,26.43
2018-06-21T04:27:54.136Z,26.72
2018-06-21T04:30:25.465Z,26.15
2018-06-21T04:32:56.470Z,26.52
2018-06-21T04:35:27.566Z,25.91
2018-06-21T04:37:58.732Z,25.96
2018-06-21T04:40:30.080Z,26.52
2018-06-21T04:43:01.289Z,26.44
2018-06-21T04:45:32.559Z,25.72
2018-06-21T04:48:03.554Z,26.18
2018-06-21T04:50:35.353Z,27.25
2018-06-21T04:53:07.208Z,24.81
2018-06-21T04:55:38.406Z,23.74
2018-06-21T04:58:09.082Z,23.28
2018-06-21T05:00:40.212Z,22.62
2018-06-21T05:03:11.239Z,21.09
2018-06-21T05:05:42.552Z,23.00
2018-06-21T05:08:14.939Z,21.39
2018-06-21T05:10:46.029Z,21.72
2018-06-21T05:13:17.074Z,22.27
2018-06-21T05:15:48.204Z,22.12
2018-06-21T05:18:19.319Z,20.75
2018-06-21T05:20:50.476Z,20.21
2018-06-21T05:23:22.180Z,20.32
2018-06-21T05:25:53.622Z,20.06
2018-06-21T05:28:24.702Z,21.09
2018-06-21T05:30:56.010Z,21.16
2018-06-21T05:33:27.276Z,21.48
2018-06-21T05:35:58.477Z,20.84
2018-06-21T05:38:29.755Z,22.28
2018-06-21T05:41:01.612Z,22.35
2018-06-21T05:43:33.209Z,22.52
2018-06-21T05:46:04.506Z,21.85
2018-06-21T05:48:36.399Z,22.04
2018-06-21T05:51:07.723Z,21.54
2018-06-21T05:53:38.697Z,23.93
2018-06-21T05:56:09.980Z,22.18
2018-06-21T05:58:41.374Z,23.68
2018-06-21T06:01:12.480Z,22.30
2018-06-21T06:03:43.927Z,23.34
2018-06-21T06:06:14.901Z,23.03
2018-06-21T06:08:46.091Z,23.33
2018-06-21T06:11:17.177Z,20.98
2018-06-21T06:13:48.126Z,19.51
2018-06-21T06:16:19.960Z,19.24
2018-06-21T06:18:51.116Z,20.47
2018-06-21T06:21:22.561Z,19.73
2018-06-21T06:23:53.912Z,19.17
2018-06-21T06:26:25.085Z,18.00
2018-06-21T06:28:56.069Z,17.46
2018-06-21T06:31:27.144Z,19.02
2018-06-21T06:33:58.308Z,18.63
2018-06-21T06:36:29.509Z,21.02
2018-06-21T06:39:18.033Z,19.74
2018-06-21T06:41:51.013Z,17.44
2018-06-21T06:44:22.178Z,17.04
2018-06-21T06:46:53.285Z,16.97
2018-06-21T06:49:24.290Z,16.61
2018-06-21T06:51:55.315Z,15.85
2018-06-21T06:54:26.849Z,16.16
2018-06-21T06:56:58.933Z,16.17
2018-06-21T06:59:30.060Z,16.98
2018-06-21T07:02:02.319Z,15.95
2018-06-21T07:04:33.554Z,16.00
2018-06-21T07:07:04.701Z,15.96
2018-06-21T07:09:35.585Z,15.89
2018-06-21T07:12:06.577Z,15.28
2018-06-21T07:14:37.712Z,15.10
2018-06-21T07:17:09.945Z,15.14
2018-06-21T07:19:41.311Z,15.62
2018-06-21T07:22:12.571Z,14.93
2018-06-21T07:24:43.575Z,15.85
2018-06-21T07:27:14.775Z,15.87
2018-06-21T07:29:45.748Z,15.39
2018-06-21T07:32:16.764Z,15.46
2018-06-21T07:34:47.985Z,17.53
2018-06-21T07:37:19.125Z,18.93
2018-06-21T07:39:51.022Z,18.58
2018-06-21T07:42:22.045Z,20.53
2018-06-21T07:44:53.336Z,22.63
2018-06-21T07:47:24.543Z,25.62
2018-06-21T07:49:55.508Z,24.96
2018-06-21T07:52:26.717Z,26.35
2018-06-21T07:54:57.951Z,26.05
2018-06-21T07:57:29.152Z,31.74
2018-06-21T08:00:00.391Z,32.86
2018-06-21T08:02:31.586Z,31.59
2018-06-21T08:05:03.400Z,29.87
2018-06-21T08:07:34.661Z,30.20
2018-06-21T08:10:05.714Z,34.29
2018-06-21T08:12:36.925Z,33.91
2018-06-21T08:15:07.777Z,34.81
2018-06-21T08:17:39.077Z,36.15
2018-06-21T08:20:10.101Z,37.10
2018-06-21T08:22:41.384Z,40.21
2018-06-21T08:25:12.894Z,42.95
2018-06-21T08:27:44.156Z,43.90
2018-06-21T08:30:15.129Z,45.13
2018-06-21T08:32:46.341Z,44.74
2018-06-21T08:35:17.674Z,44.47
2018-06-21T08:37:50.365Z,46.52
2018-06-21T08:40:21.284Z,48.05
2018-06-21T08:42:52.251Z,48.76
2018-06-21T08:45:23.360Z,47.92
2018-06-21T08:47:54.340Z,47.88
2018-06-21T08:50:25.653Z,50.16
2018-06-21T08:52:56.928Z,49.59
2018-06-21T08:55:28.139Z,49.85
2018-06-21T08:57:59.249Z,50.26
2018-06-21T09:00:30.375Z,48.15
2018-06-21T09:03:01.443Z,49.62
2018-06-21T09:05:32.544Z,50.13
2018-06-21T09:08:03.573Z,50.04
2018-06-21T09:10:34.638Z,50.92
2018-06-21T09:13:05.822Z,50.99
2018-06-21T09:15:36.906Z,50.81
2018-06-21T09:18:08.578Z,50.73
2018-06-21T09:20:39.929Z,51.99
2018-06-21T09:23:11.325Z,51.79
2018-06-21T09:25:42.573Z,52.02
2018-06-21T09:28:13.899Z,51.50
2018-06-21T09:30:44.920Z,52.21
2018-06-21T09:33:16.250Z,51.51
2018-06-21T09:35:47.463Z,51.11
2018-06-21T09:38:23.338Z,53.05
2018-06-21T09:40:59.177Z,52.82
2018-06-21T09:43:34.829Z,51.78
2018-06-21T09:46:10.934Z,52.68
2018-06-21T09:48:45.954Z,52.56
2018-06-21T09:51:16.922Z,52.81
2018-06-21T09:53:47.775Z,53.59
2018-06-21T09:56:19.445Z,52.80
2018-06-21T09:58:51.532Z,53.41
2018-06-21T10:01:22.554Z,55.04
2018-06-21T10:03:53.697Z,56.40
2018-06-21T10:06:24.801Z,55.44
2018-06-21T10:08:56.138Z,55.40
2018-06-21T10:11:27.287Z,56.17
2018-06-21T10:13:58.837Z,56.21
2018-06-21T10:16:29.820Z,58.36
2018-06-21T10:19:01.261Z,58.45
2018-06-21T10:21:32.412Z,59.41
2018-06-21T10:24:04.445Z,59.87
2018-06-21T10:26:35.728Z,60.23
2018-06-21T10:29:07.010Z,60.12
2018-06-21T10:31:38.935Z,59.25
2018-06-21T10:34:10.159Z,62.39
2018-06-21T10:36:41.430Z,60.37
2018-06-21T10:39:13.340Z,62.97
2018-06-21T10:41:44.444Z,62.98
2018-06-21T10:44:16.035Z,63.93
2018-06-21T10:46:47.290Z,63.61
2018-06-21T10:49:18.701Z,64.83
2018-06-21T10:51:49.758Z,67.25
2018-06-21T10:54:21.201Z,65.53
2018-06-21T10:56:52.442Z,67.76
2018-06-21T10:59:23.586Z,67.10
2018-06-21T11:01:54.666Z,66.45
2018-06-21T11:04:25.679Z,65.61
2018-06-21T11:06:56.574Z,66.47
2018-06-21T11:09:28.313Z,67.56
2018-06-21T11:11:59.446Z,67.09
2018-06-21T11:14:30.578Z,67.66
2018-06-21T11:17:01.906Z,67.20
2018-06-21T11:19:33.186Z,67.47
2018-06-21T11:22:04.194Z,63.25
2018-06-21T11:24:35.229Z,64.62
2018-06-21T11:27:07.194Z,65.77
2018-06-21T11:29:38.893Z,63.45
2018-06-21T11:32:11.015Z,65.55
2018-06-21T11:34:42.402Z,69.67
2018-06-21T11:37:14.389Z,69.30
2018-06-21T11:39:45.829Z,70.48
2018-06-21T11:42:16.910Z,68.04
2018-06-21T11:44:47.904Z,67.21
2018-06-21T11:47:18.971Z,70.68
2018-06-21T11:49:50.265Z,71.48
2018-06-21T11:52:21.632Z,71.20
2018-06-21T11:54:52.905Z,68.76
2018-06-21T11:57:23.912Z,70.92
2018-06-21T11:59:55.096Z,69.60
2018-06-21T12:02:26.468Z,68.37
2018-06-21T12:04:57.886Z,69.85
2018-06-21T12:07:28.955Z,70.48
2018-06-21T12:10:00.240Z,68.60
2018-06-21T12:12:31.503Z,72.10
2018-06-21T12:15:02.629Z,73.84
2018-06-21T12:17:33.826Z,72.45
2018-06-21T12:20:04.842Z,72.31
2018-06-21T12:22:35.984Z,74.31
2018-06-21T12:25:07.668Z,71.49
2018-06-21T12:27:38.729Z,68.04
2018-06-21T12:30:10.002Z,73.02
2018-06-21T12:32:41.031Z,73.05
2018-06-21T12:35:12.250Z,74.55
2018-06-21T12:37:43.361Z,74.57
2018-06-21T12:40:14.429Z,70.32
2018-06-21T12:42:45.646Z,71.01
2018-06-21T12:45:17.038Z,71.80
2018-06-21T12:47:48.132Z,71.79
2018-06-21T12:50:19.346Z,73.45
2018-06-21T12:52:50.692Z,74.96
2018-06-21T12:55:22.137Z,74.64
2018-06-21T12:57:53.370Z,74.11
2018-06-21T13:00:24.597Z,75.90
2018-06-21T13:02:56.875Z,76.57
2018-06-21T13:05:28.123Z,77.24
2018-06-21T13:07:59.753Z,78.50
2018-06-21T13:10:41.341Z,76.10
2018-06-21T13:13:30.008Z,77.65
2018-06-21T13:16:00.854Z,76.99
2018-06-21T13:18:32.076Z,75.17
2018-06-21T13:21:03.105Z,76.16
2018-06-21T13:23:34.199Z,74.29
2018-06-21T13:26:05.536Z,76.09
2018-06-21T13:28:37.824Z,76.69
2018-06-21T13:31:09.791Z,76.29
2018-06-21T13:33:40.797Z,74.09
2018-06-21T13:36:12.097Z,76.25
2018-06-21T13:38:44.227Z,76.56
2018-06-21T13:41:15.451Z,77.64
2018-06-21T13:43:46.532Z,76.13
2018-06-21T13:46:17.896Z,74.77
2018-06-21T13:48:50.026Z,73.74
2018-06-21T13:51:21.310Z,74.00
2018-06-21T13:53:52.522Z,71.94
2018-06-21T13:56:23.750Z,73.01
2018-06-21T13:58:56.990Z,73.92
2018-06-21T14:01:28.337Z,73.86
2018-06-21T14:03:59.446Z,73.35
2018-06-21T14:06:30.617Z,73.33
2018-06-21T14:09:01.733Z,72.94
2018-06-21T14:11:33.126Z,72.63
2018-06-21T14:14:04.321Z,73.93
2018-06-21T14:16:37.700Z,75.04
2018-06-21T14:19:14.016Z,74.75
2018-06-21T14:21:45.386Z,74.36
2018-06-21T14:24:16.734Z,74.89
2018-06-21T14:26:47.964Z,75.32
2018-06-21T14:29:18.976Z,77.07
2018-06-21T14:31:50.074Z,77.04
2018-06-21T14:34:21.173Z,77.95
2018-06-21T14:36:53.495Z,79.27
2018-06-21T14:39:35.020Z,78.35
2018-06-21T14:42:12.110Z,79.10
2018-06-21T14:44:43.327Z,78.39
2018-06-21T14:47:14.906Z,77.82
2018-06-21T14:49:46.284Z,76.48
2018-06-21T14:52:17.666Z,76.93
2018-06-21T14:54:49.641Z,77.62
2018-06-21T14:57:21.559Z,78.05
2018-06-21T14:59:52.893Z,77.16
2018-06-21T15:02:23.984Z,77.17
2018-06-21T15:04:54.960Z,76.01
2018-06-21T15:07:26.235Z,77.17
2018-06-21T15:09:57.417Z,72.47
2018-06-21T15:12:28.463Z,63.24
2018-06-21T15:14:59.733Z,60.45
2018-06-21T15:17:31.247Z,59.46
2018-06-21T15:20:02.466Z,64.45
2018-06-21T15:22:33.845Z,71.45
2018-06-21T15:25:04.752Z,72.48
2018-06-21T15:27:35.914Z,63.71
2018-06-21T15:30:06.887Z,75.17
2018-06-21T15:32:38.289Z,76.28
2018-06-21T15:35:09.215Z,73.17
2018-06-21T15:37:40.489Z,75.44
2018-06-21T15:40:16.109Z,77.43
2018-06-21T15:42:48.120Z,78.25
2018-06-21T15:45:19.647Z,77.53
2018-06-21T15:47:50.912Z,76.82
2018-06-21T15:50:21.995Z,64.27
2018-06-21T15:52:54.057Z,61.72
2018-06-21T15:55:25.167Z,59.37
2018-06-21T15:57:56.437Z,60.40
2018-06-21T16:00:27.499Z,60.98
2018-06-21T16:02:58.505Z,60.12
2018-06-21T16:05:30.174Z,58.94
2018-06-21T16:08:01.326Z,59.09
2018-06-21T16:10:33.247Z,58.98
2018-06-21T16:13:04.551Z,59.18
2018-06-21T16:15:38.851Z,63.06
2018-06-21T16:18:10.315Z,65.78
2018-06-21T16:20:41.808Z,74.70
2018-06-21T16:23:13.501Z,73.81
2018-06-21T16:25:44.453Z,78.30
2018-06-21T16:28:15.999Z,73.54
2018-06-21T16:30:47.195Z,67.25
2018-06-21T16:33:18.295Z,69.34
2018-06-21T16:35:49.461Z,67.69
2018-06-21T16:38:20.719Z,67.69
2018-06-21T16:40:51.831Z,66.73
2018-06-21T16:43:22.973Z,65.87
2018-06-21T16:45:53.972Z,64.56
2018-06-21T16:48:25.309Z,64.22
2018-06-21T16:50:56.366Z,64.43
2018-06-21T16:53:27.665Z,64.91
2018-06-21T16:55:58.860Z,65.79
2018-06-21T16:58:30.039Z,66.19
2018-06-21T17:01:01.303Z,66.01
2018-06-21T17:03:33.873Z,65.87
2018-06-21T17:06:05.068Z,66.58
2018-06-21T17:08:35.899Z,66.72
2018-06-21T17:11:07.267Z,66.72
2018-06-21T17:13:38.351Z,67.55
2018-06-21T17:16:09.534Z,67.44
2018-06-21T17:18:41.647Z,66.12
2018-06-21T17:21:12.774Z,66.78
2018-06-21T17:23:44.169Z,66.97
2018-06-21T17:26:15.268Z,67.11
2018-06-21T17:28:46.442Z,67.44
2018-06-21T17:31:17.921Z,68.48
2018-06-21T17:33:49.403Z,68.49
2018-06-21T17:36:20.565Z,68.94
2018-06-21T17:38:51.877Z,69.02
2018-06-21T17:41:23.939Z,69.52
2018-06-21T17:43:55.208Z,69.69
2018-06-21T17:46:26.411Z,68.98
2018-06-21T17:48:58.516Z,68.56
2018-06-21T17:51:29.887Z,68.79
2018-06-21T17:54:01.281Z,69.10
2018-06-21T17:56:32.571Z,69.94
2018-06-21T17:59:03.675Z,69.83
2018-06-21T18:01:34.637Z,70.23
2018-06-21T18:04:05.723Z,70.78
2018-06-21T18:06:36.695Z,70.44
2018-06-21T18:09:09.244Z,70.21
2018-06-21T18:11:40.220Z,70.52
2018-06-21T18:14:11.325Z,72.84
2018-06-21T18:16:42.765Z,73.13
2018-06-21T18:19:18.547Z,72.83
2018-06-21T18:22:06.133Z,73.55
2018-06-21T18:24:56.039Z,73.96
2018-06-21T18:27:40.430Z,73.59
2018-06-21T18:30:17.869Z,74.42
2018-06-21T18:32:52.713Z,74.91
2018-06-21T18:35:28.883Z,75.25
2018-06-21T18:38:03.484Z,74.96
2018-06-21T18:40:38.429Z,75.65
2018-06-21T18:43:10.756Z,75.47
2018-06-21T18:47:11.141Z,76.04
2018-06-21T18:49:42.580Z,76.39
2018-06-21T18:52:13.857Z,77.31
2018-06-21T18:54:45.201Z,78.47
2018-06-21T18:57:16.588Z,79.36
2018-06-21T18:59:47.622Z,80.32
2018-06-21T19:02:18.823Z,81.38
2018-06-21T19:04:49.908Z,81.74
2018-06-21T19:07:26.196Z,82.37
2018-06-21T19:10:02.308Z,82.95
2018-06-21T19:12:33.411Z,82.85
2018-06-21T19:15:04.917Z,83.88
2018-06-21T19:17:36.522Z,84.36
2018-06-21T19:20:07.512Z,84.12
2018-06-21T19:22:38.659Z,83.99
2018-06-21T19:25:09.624Z,83.26
2018-06-21T19:27:41.192Z,82.52
2018-06-21T19:30:12.129Z,82.51
2018-06-21T19:32:43.113Z,81.75
2018-06-21T19:35:14.278Z,81.92
2018-06-21T19:37:45.626Z,81.65
2018-06-21T19:40:16.719Z,82.01
2018-06-21T19:42:47.706Z,80.06
2018-06-21T19:45:19.449Z,79.70
2018-06-21T19:47:50.682Z,78.49
2018-06-21T19:50:21.748Z,78.09
2018-06-21T19:52:52.839Z,76.62
2018-06-21T19:55:24.904Z,76.23
2018-06-21T19:57:55.747Z,76.37
2018-06-21T20:00:26.885Z,76.18
2018-06-21T20:03:00.930Z,75.34
2018-06-21T20:05:31.972Z,75.05
2018-06-21T20:08:03.249Z,74.32
2018-06-21T20:10:34.252Z,73.71
2018-06-21T20:13:05.611Z,74.91
2018-06-21T20:15:54.432Z,74.53
2018-06-21T20:18:26.554Z,75.20
2018-06-21T20:21:01.014Z,75.02
2018-06-21T20:23:32.448Z,74.21
2018-06-21T20:26:03.832Z,74.19
2018-06-21T20:28:37.450Z,74.20
2018-06-21T20:31:09.877Z,73.14
2018-06-21T20:33:42.631Z,71.78
2018-06-21T20:36:15.019Z,72.02
2018-06-21T20:38:46.614Z,71.90
2018-06-21T20:41:18.024Z,71.54
2018-06-21T20:43:49.748Z,71.09
2018-06-21T20:46:22.029Z,71.59
2018-06-21T20:48:53.245Z,70.27
2018-06-21T20:51:24.726Z,69.14
2018-06-21T20:53:56.331Z,68.87
2018-06-21T20:56:27.661Z,68.38
2018-06-21T20:58:59.164Z,69.88
2018-06-21T21:01:30.421Z,69.25
2018-06-21T21:04:01.891Z,70.28
2018-06-21T21:06:33.357Z,69.65
2018-06-21T21:09:08.138Z,69.64
2018-06-21T21:11:40.661Z,69.32
2018-06-21T21:14:27.612Z,68.93
2018-06-21T21:17:01.677Z,69.74
2018-06-21T21:19:32.793Z,68.84
2018-06-21T21:22:04.095Z,68.58
2018-06-21T21:24:35.410Z,68.39
2018-06-21T21:27:07.735Z,67.42
2018-06-21T21:29:40.103Z,66.89
2018-06-21T21:32:13.794Z,66.79
2018-06-21T21:34:45.953Z,67.29
2018-06-21T21:37:17.097Z,67.62
2018-06-21T21:39:48.327Z,66.68
2018-06-21T21:42:20.386Z,66.55
2018-06-21T21:44:51.209Z,66.61
2018-06-21T21:47:24.043Z,66.66
2018-06-21T21:50:06.181Z,67.05
2018-06-21T21:52:37.407Z,67.17
2018-06-21T21:55:08.752Z,66.67
2018-06-21T21:57:39.743Z,66.49
2018-06-21T22:00:48.547Z,67.31
2018-06-21T22:03:19.806Z,67.93
2018-06-21T22:05:50.705Z,67.76
2018-06-21T22:08:22.816Z,68.13
2018-06-21T22:10:54.836Z,68.56
2018-06-21T22:13:26.014Z,68.35
2018-06-21T22:15:58.502Z,68.67
2018-06-21T22:18:30.295Z,68.75
2018-06-21T22:21:01.258Z,69.18
2018-06-21T22:23:32.597Z,69.40
2018-06-21T22:26:03.851Z,70.13
2018-06-21T22:28:35.800Z,70.02
2018-06-21T22:31:07.641Z,70.24
2018-06-21T22:33:38.754Z,70.22
2018-06-21T22:36:10.947Z,70.60
2018-06-21T22:38:42.323Z,70.81
2018-06-21T22:41:14.931Z,70.63
2018-06-21T22:43:48.051Z,71.24
2018-06-21T22:46:21.311Z,71.06
2018-06-21T22:48:52.586Z,70.58
2018-06-21T22:51:23.561Z,70.97
2018-06-21T22:53:55.852Z,70.86
2018-06-21T22:56:28.765Z,71.39
2018-06-21T22:59:01.209Z,70.90
2018-06-21T23:01:33.979Z,71.22
2018-06-21T23:04:05.130Z,71.82
2018-06-21T23:06:36.696Z,71.58
2018-06-21T23:09:09.510Z,72.09
2018-06-21T23:11:42.907Z,72.63
2018-06-21T23:14:14.352Z,72.36
2018-06-21T23:16:47.433Z,72.57
2018-06-21T23:19:30.437Z,73.25
2018-06-21T23:22:02.799Z,73.08
2018-06-21T23:24:33.924Z,73.18
2018-06-21T23:27:06.482Z,73.19
2018-06-21T23:29:37.478Z,73.84
2018-06-21T23:32:09.494Z,74.49
2018-06-21T23:34:43.340Z,74.44
2018-06-21T23:37:16.898Z,74.26
2018-06-21T23:39:48.011Z,74.07
2018-06-21T23:42:19.491Z,73.86
2018-06-21T23:44:50.615Z,73.66
2018-06-21T23:47:22.026Z,75.14
2018-06-21T23:49:53.110Z,75.20
2018-06-21T23:52:24.595Z,75.18
2018-06-21T23:54:55.902Z,75.16
2018-06-21T23:57:27.950Z,74.84
2018-06-21T23:59:59.966Z,73.89
